createdAt,value
2022-12-04T00:01:28.118Z,39.90
2022-12-04T00:03:57.443Z,45.20
2022-12-04T00:06:26.818Z,40.33
2022-12-04T00:08:55.722Z,40.10
2022-12-04T00:11:27.291Z,41.42
2022-12-04T00:13:55.712Z,39.80
2022-12-04T00:16:27.083Z,41.95
2022-12-04T00:18:55.644Z,41.17
2022-12-04T00:21:24.974Z,40.75
2022-12-04T00:23:54.353Z,38.10
2022-12-04T00:26:25.006Z,41.95
2022-12-04T00:28:53.974Z,40.70
2022-12-04T00:31:24.055Z,40.15
2022-12-04T00:33:53.853Z,45.38
2022-12-04T00:36:24.321Z,39.67
2022-12-04T00:38:52.925Z,37.00
2022-12-04T00:41:23.351Z,41.00
2022-12-04T00:43:51.749Z,39.35
2022-12-04T00:46:20.815Z,42.72
2022-12-04T00:48:49.444Z,40.22
2022-12-04T00:51:20.700Z,37.05
2022-12-04T00:53:49.015Z,37.95
2022-12-04T00:56:18.910Z,40.25
2022-12-04T00:58:47.804Z,39.92
2022-12-04T01:01:17.845Z,40.20
2022-12-04T01:03:46.527Z,39.15
2022-12-04T01:06:24.583Z,39.38
2022-12-04T01:08:54.185Z,40.30
2022-12-04T01:11:23.589Z,37.88
2022-12-04T01:13:52.139Z,39.20
2022-12-04T01:16:22.788Z,38.65
2022-12-04T01:18:51.296Z,39.42
2022-12-04T01:21:20.045Z,40.03
2022-12-04T01:23:49.645Z,37.80
2022-12-04T01:26:17.687Z,36.45
2022-12-04T01:28:45.817Z,38.72
2022-12-04T01:31:16.087Z,39.03
2022-12-04T01:33:45.009Z,42.95
2022-12-04T01:36:15.750Z,40.47
2022-12-04T01:38:43.862Z,39.75
2022-12-04T01:41:15.574Z,43.67
2022-12-04T01:43:44.288Z,37.88
2022-12-04T01:46:13.215Z,43.92
2022-12-04T01:48:47.423Z,41.17
2022-12-04T01:51:21.087Z,37.47
2022-12-04T01:53:53.972Z,43.28
2022-12-04T01:56:27.841Z,38.30
2022-12-04T01:59:00.097Z,38.78
2022-12-04T02:01:30.403Z,41.75
2022-12-04T02:04:00.232Z,36.80
2022-12-04T02:06:28.414Z,36.17
2022-12-04T02:08:56.649Z,35.63
2022-12-04T02:11:32.530Z,38.17
2022-12-04T02:14:08.925Z,41.95
2022-12-04T02:16:44.630Z,36.58
2022-12-04T02:19:34.103Z,41.40
2022-12-04T02:22:11.906Z,42.20
2022-12-04T02:24:53.882Z,48.97
2022-12-04T02:27:36.509Z,47.90
2022-12-04T02:30:09.923Z,46.08
2022-12-04T02:32:43.585Z,40.80
2022-12-04T02:35:16.890Z,51.95
2022-12-04T02:37:49.055Z,44.45
2022-12-04T02:40:25.280Z,51.60
2022-12-04T02:43:00.977Z,48.60
2022-12-04T02:45:35.089Z,48.55
2022-12-04T02:48:06.029Z,50.78
2022-12-04T02:50:38.635Z,52.22
2022-12-04T02:53:11.650Z,43.35
2022-12-04T02:55:46.198Z,53.67
2022-12-04T02:58:20.269Z,50.17
2022-12-04T03:00:51.729Z,44.88
2022-12-04T03:03:24.683Z,45.75
2022-12-04T03:05:59.213Z,49.85
2022-12-04T03:08:33.653Z,49.25
2022-12-04T03:11:02.581Z,48.88
2022-12-04T03:13:37.389Z,48.75
2022-12-04T03:16:11.750Z,47.05
2022-12-04T03:18:44.147Z,45.45
2022-12-04T03:21:17.793Z,46.92
2022-12-04T03:23:49.938Z,52.47
2022-12-04T03:26:27.172Z,46.40
2022-12-04T03:29:00.346Z,48.63
2022-12-04T03:31:36.300Z,46.60
2022-12-04T03:34:07.280Z,46.53
2022-12-04T03:36:39.213Z,50.90
2022-12-04T03:39:13.955Z,47.95
2022-12-04T03:41:55.405Z,54.97
2022-12-04T03:44:30.127Z,59.50
2022-12-04T03:47:05.796Z,53.60
2022-12-04T03:49:41.795Z,59.60
2022-12-04T03:52:15.732Z,54.13
2022-12-04T03:54:48.428Z,54.03
2022-12-04T03:57:21.341Z,54.70
2022-12-04T03:59:56.129Z,49.80
2022-12-04T04:02:29.865Z,46.83
2022-12-04T04:05:01.609Z,52.95
2022-12-04T04:07:35.849Z,47.08
2022-12-04T04:10:08.928Z,49.55
2022-12-04T04:12:42.442Z,45.97
2022-12-04T04:15:32.359Z,51.05
2022-12-04T04:18:20.831Z,48.65
2022-12-04T04:21:11.665Z,49.13
2022-12-04T04:24:01.731Z,49.17
2022-12-04T04:26:35.714Z,39.80
2022-12-04T04:29:03.904Z,38.20
2022-12-04T04:31:38.034Z,42.08
2022-12-04T04:34:19.070Z,47.53
2022-12-04T04:36:55.330Z,37.35
2022-12-04T04:39:33.918Z,40.75
2022-12-04T04:42:07.879Z,41.40
2022-12-04T04:44:46.201Z,37.67
2022-12-04T04:47:20.076Z,37.05
2022-12-04T04:49:53.209Z,38.47
2022-12-04T04:52:24.461Z,35.80
2022-12-04T04:54:52.868Z,34.25
2022-12-04T04:57:29.125Z,35.28
2022-12-04T04:59:57.617Z,38.70
2022-12-04T05:02:27.047Z,36.15
2022-12-04T05:04:56.827Z,38.85
2022-12-04T05:07:25.117Z,41.03
2022-12-04T05:09:53.656Z,40.45
2022-12-04T05:12:22.856Z,39.88
2022-12-04T05:14:51.201Z,42.55
2022-12-04T05:17:19.737Z,40.00
2022-12-04T05:19:57.878Z,40.10
2022-12-04T05:22:32.005Z,43.72
2022-12-04T05:25:01.452Z,42.75
2022-12-04T05:27:31.732Z,41.90
2022-12-04T05:30:00.494Z,41.72
2022-12-04T05:32:30.299Z,42.28
2022-12-04T05:34:58.912Z,41.25
2022-12-04T05:37:28.352Z,43.38
2022-12-04T05:39:56.678Z,46.15
2022-12-04T05:42:25.154Z,46.28
2022-12-04T05:44:53.246Z,44.70
2022-12-04T05:47:21.312Z,44.78
2022-12-04T05:49:49.404Z,42.75
2022-12-04T05:52:17.488Z,43.15
2022-12-04T05:54:47.187Z,46.83
2022-12-04T05:57:15.174Z,43.88
2022-12-04T05:59:43.378Z,44.33
2022-12-04T06:02:11.751Z,54.38
2022-12-04T06:04:40.017Z,46.25
2022-12-04T06:07:10.537Z,47.72
2022-12-04T06:09:41.033Z,52.47
2022-12-04T06:12:10.520Z,54.30
2022-12-04T06:14:40.001Z,50.75
2022-12-04T06:17:08.844Z,52.65
2022-12-04T06:19:36.880Z,52.47
2022-12-04T06:22:06.325Z,46.92
2022-12-04T06:24:34.459Z,56.00
2022-12-04T06:27:26.852Z,50.95
2022-12-04T06:29:55.023Z,55.80
2022-12-04T06:32:23.606Z,64.63
2022-12-04T06:34:53.492Z,62.80
2022-12-04T06:37:23.644Z,52.47
2022-12-04T06:39:52.097Z,54.28
2022-12-04T06:42:20.339Z,55.17
2022-12-04T06:44:48.493Z,53.15
2022-12-04T06:47:18.646Z,47.90
2022-12-04T06:49:51.208Z,47.70
2022-12-04T06:52:19.722Z,48.92
2022-12-04T06:54:48.487Z,44.85
2022-12-04T06:57:16.778Z,48.58
2022-12-04T06:59:45.086Z,43.85
2022-12-04T07:02:13.205Z,50.83
2022-12-04T07:04:43.274Z,53.28
2022-12-04T07:07:13.353Z,51.20
2022-12-04T07:09:41.824Z,55.63
2022-12-04T07:12:10.203Z,52.58
2022-12-04T07:14:38.411Z,54.78
2022-12-04T07:17:09.180Z,55.97
2022-12-04T07:19:38.745Z,79.20
2022-12-04T07:22:09.396Z,86.43
2022-12-04T07:24:40.678Z,70.03
2022-12-04T07:27:09.257Z,74.32
2022-12-04T07:29:37.542Z,70.97
2022-12-04T07:32:06.783Z,75.43
2022-12-04T07:34:35.759Z,72.40
2022-12-04T07:37:04.046Z,64.97
2022-12-04T07:39:33.618Z,64.05
2022-12-04T07:42:01.939Z,59.22
2022-12-04T07:44:32.138Z,64.10
2022-12-04T07:47:00.514Z,60.75
2022-12-04T07:49:30.839Z,66.82
2022-12-04T07:52:00.596Z,64.47
2022-12-04T07:54:28.917Z,62.10
2022-12-04T07:56:58.640Z,57.75
2022-12-04T07:59:26.950Z,59.22
2022-12-04T08:01:55.481Z,64.45
2022-12-04T08:04:23.767Z,57.00
2022-12-04T08:06:52.025Z,66.03
2022-12-04T08:09:20.518Z,62.53
2022-12-04T08:11:48.989Z,57.10
2022-12-04T08:14:18.547Z,56.38
2022-12-04T08:16:52.330Z,61.10
2022-12-04T08:19:21.488Z,60.47
2022-12-04T08:21:52.209Z,60.25
2022-12-04T08:24:20.802Z,61.75
2022-12-04T08:26:49.080Z,62.50
2022-12-04T08:29:18.784Z,61.53
2022-12-04T08:31:46.937Z,58.40
2022-12-04T08:34:15.840Z,64.65
2022-12-04T08:36:44.166Z,60.00
2022-12-04T08:39:13.112Z,69.43
2022-12-04T08:41:41.214Z,60.15
2022-12-04T08:44:11.197Z,59.78
2022-12-04T08:46:43.503Z,63.78
2022-12-04T08:49:12.068Z,59.25
2022-12-04T08:51:42.139Z,56.47
2022-12-04T08:54:13.881Z,63.97
2022-12-04T08:56:43.994Z,54.08
2022-12-04T08:59:14.490Z,55.80
2022-12-04T09:01:44.401Z,53.40
2022-12-04T09:04:12.866Z,52.75
2022-12-04T09:06:41.448Z,53.15
2022-12-04T09:09:09.565Z,55.20
2022-12-04T09:11:38.716Z,55.40
2022-12-04T09:14:07.417Z,53.85
2022-12-04T09:16:35.655Z,52.65
2022-12-04T09:19:05.283Z,52.00
2022-12-04T09:21:33.600Z,53.42
2022-12-04T09:24:02.093Z,50.97
2022-12-04T09:26:32.261Z,54.17
2022-12-04T09:29:01.942Z,52.70
2022-12-04T09:31:31.718Z,52.40
2022-12-04T09:34:00.124Z,54.13
2022-12-04T09:36:30.852Z,53.90
2022-12-04T09:38:59.170Z,50.72
2022-12-04T09:42:04.683Z,50.33
2022-12-04T09:44:36.627Z,50.60
2022-12-04T09:47:08.862Z,51.20
2022-12-04T09:49:43.196Z,48.92
2022-12-04T09:52:25.375Z,51.10
2022-12-04T09:54:54.986Z,52.35
2022-12-04T09:57:26.880Z,55.22
2022-12-04T09:59:56.508Z,47.83
2022-12-04T10:02:36.711Z,52.53
2022-12-04T10:05:06.582Z,46.90
2022-12-04T10:07:46.193Z,48.58
2022-12-04T10:10:20.706Z,47.38
2022-12-04T10:13:06.155Z,47.42
2022-12-04T10:15:41.567Z,46.58
2022-12-04T10:18:27.211Z,50.03
2022-12-04T10:21:19.263Z,42.03
2022-12-04T10:23:59.529Z,43.72
2022-12-04T10:26:32.066Z,30.90
2022-12-04T10:29:05.371Z,39.63
2022-12-04T10:31:36.713Z,32.30
2022-12-04T10:34:13.771Z,35.45
2022-12-04T10:36:46.033Z,32.40
2022-12-04T10:39:24.267Z,32.97
2022-12-04T10:41:56.832Z,31.55
2022-12-04T10:44:26.847Z,31.20
2022-12-04T10:46:59.911Z,30.20
2022-12-04T10:49:30.034Z,32.00
2022-12-04T10:51:59.024Z,29.70
2022-12-04T10:54:34.006Z,32.55
2022-12-04T10:57:04.589Z,32.05
2022-12-04T10:59:33.784Z,30.63
2022-12-04T11:02:07.296Z,30.58
2022-12-04T11:04:36.979Z,29.42
2022-12-04T11:07:07.429Z,28.67
2022-12-04T11:09:37.995Z,26.65
2022-12-04T11:12:09.530Z,26.55
2022-12-04T11:14:42.741Z,29.30
2022-12-04T11:17:18.999Z,25.20
2022-12-04T11:19:47.356Z,27.42
2022-12-04T11:22:19.083Z,27.15
2022-12-04T11:24:58.181Z,27.30
2022-12-04T11:27:32.773Z,27.45
2022-12-04T11:30:04.725Z,26.45
2022-12-04T11:32:34.931Z,27.05
2022-12-04T11:35:13.830Z,26.17
2022-12-04T11:37:45.430Z,24.52
2022-12-04T11:40:20.347Z,26.75
2022-12-04T11:43:00.994Z,26.55
2022-12-04T11:45:30.030Z,26.23
2022-12-04T11:48:00.197Z,23.67
2022-12-04T11:50:38.328Z,22.15
2022-12-04T11:53:16.148Z,27.27
2022-12-04T11:56:00.472Z,23.85
2022-12-04T11:58:45.163Z,22.42
2022-12-04T12:01:25.217Z,24.25
2022-12-04T12:04:07.292Z,20.70
2022-12-04T12:06:38.904Z,24.20
2022-12-04T12:09:30.344Z,23.55
2022-12-04T12:12:09.141Z,23.13
2022-12-04T12:14:52.492Z,23.70
2022-12-04T12:17:32.579Z,22.73
2022-12-04T12:20:15.761Z,23.40
2022-12-04T12:23:19.103Z,22.70
2022-12-04T12:25:55.903Z,22.33
2022-12-04T12:28:42.195Z,24.33
2022-12-04T12:31:38.672Z,23.33
2022-12-04T12:34:12.253Z,21.25
2022-12-04T12:36:45.299Z,24.70
2022-12-04T12:39:17.604Z,24.17
2022-12-04T12:41:49.826Z,22.10
2022-12-04T12:44:23.838Z,23.77
2022-12-04T12:46:54.657Z,23.05
2022-12-04T12:49:28.057Z,24.95
2022-12-04T12:52:01.305Z,21.40
2022-12-04T12:54:34.641Z,22.95
2022-12-04T12:57:07.964Z,22.90
2022-12-04T12:59:43.438Z,21.15
2022-12-04T13:02:24.420Z,24.23
2022-12-04T13:04:57.022Z,24.33
2022-12-04T13:07:34.217Z,23.23
2022-12-04T13:10:06.721Z,24.25
2022-12-04T13:12:45.297Z,23.42
2022-12-04T13:15:17.709Z,24.48
2022-12-04T13:17:48.627Z,21.63
2022-12-04T13:20:24.061Z,22.67
2022-12-04T13:23:05.383Z,23.92
2022-12-04T13:25:46.733Z,23.45
2022-12-04T13:28:29.556Z,22.80
2022-12-04T13:31:11.451Z,22.13
2022-12-04T13:33:59.558Z,21.80
2022-12-04T13:36:46.614Z,23.00
2022-12-04T13:39:36.947Z,23.42
2022-12-04T13:42:07.864Z,23.10
2022-12-04T13:44:36.841Z,23.00
2022-12-04T13:47:08.844Z,23.98
2022-12-04T13:49:38.671Z,27.10
2022-12-04T13:52:23.870Z,26.17
2022-12-04T13:54:59.926Z,24.55
2022-12-04T13:57:28.951Z,28.33
2022-12-04T14:00:05.522Z,28.27
2022-12-04T14:02:50.455Z,27.05
2022-12-04T14:05:28.939Z,24.08
2022-12-04T14:08:07.262Z,26.48
2022-12-04T14:10:40.386Z,25.70
2022-12-04T14:13:20.260Z,25.45
2022-12-04T14:15:49.064Z,23.02
2022-12-04T14:18:30.675Z,23.27
2022-12-04T14:21:01.338Z,25.67
2022-12-04T14:23:37.058Z,27.73
2022-12-04T14:26:05.939Z,21.23
2022-12-04T14:28:45.277Z,21.17
2022-12-04T14:31:31.682Z,20.48
2022-12-04T14:34:05.208Z,18.40
2022-12-04T14:36:37.592Z,20.02
2022-12-04T14:39:12.991Z,21.30
2022-12-04T14:41:43.133Z,18.65
2022-12-04T14:44:24.223Z,16.83
2022-12-04T14:46:56.255Z,18.58
2022-12-04T14:49:35.775Z,18.27
2022-12-04T14:52:12.468Z,19.33
2022-12-04T14:54:52.425Z,19.45
2022-12-04T14:57:36.516Z,19.17
2022-12-04T15:00:06.131Z,21.40
2022-12-04T15:02:39.788Z,19.63
2022-12-04T15:05:12.715Z,24.23
2022-12-04T15:07:49.651Z,19.35
2022-12-04T15:10:38.657Z,19.35
2022-12-04T15:13:06.859Z,19.10
2022-12-04T15:15:35.552Z,19.00
2022-12-04T15:18:05.490Z,17.45
2022-12-04T15:20:40.604Z,20.58
2022-12-04T15:23:15.959Z,21.67
2022-12-04T15:25:48.003Z,23.67
2022-12-04T15:28:20.336Z,25.98
2022-12-04T15:30:50.673Z,29.77
2022-12-04T15:33:21.925Z,29.13
2022-12-04T15:35:59.068Z,28.38
2022-12-04T15:38:27.747Z,29.92
2022-12-04T15:40:58.417Z,27.42
2022-12-04T15:43:31.564Z,27.77
2022-12-04T15:46:00.567Z,31.00
2022-12-04T15:48:33.099Z,37.15
2022-12-04T15:51:07.316Z,35.10
2022-12-04T15:53:38.545Z,29.40
2022-12-04T15:56:09.564Z,32.50
2022-12-04T15:58:40.857Z,33.50
2022-12-04T16:01:14.085Z,32.10
2022-12-04T16:03:48.519Z,32.58
2022-12-04T16:06:20.849Z,30.08
2022-12-04T16:08:51.180Z,28.65
2022-12-04T16:11:29.475Z,28.40
2022-12-04T16:14:16.476Z,26.42
2022-12-04T16:16:46.899Z,28.30
2022-12-04T16:19:29.896Z,30.15
2022-12-04T16:21:59.813Z,30.98
2022-12-04T16:24:30.772Z,27.80
2022-12-04T16:27:01.518Z,32.30
2022-12-04T16:29:30.616Z,31.70
2022-12-04T16:32:02.929Z,32.30
2022-12-04T16:34:31.929Z,33.67
2022-12-04T16:37:02.189Z,28.55
2022-12-04T16:39:30.152Z,31.25
2022-12-04T16:41:58.247Z,43.42
2022-12-04T16:44:26.728Z,37.90
2022-12-04T16:46:54.996Z,32.90
2022-12-04T16:49:23.474Z,34.67
2022-12-04T16:51:51.431Z,30.90
2022-12-04T16:54:20.906Z,32.75
2022-12-04T16:56:49.148Z,34.35
2022-12-04T16:59:17.320Z,29.92
2022-12-04T17:01:49.031Z,32.45
2022-12-04T17:04:18.752Z,35.85
2022-12-04T17:06:47.327Z,31.45
2022-12-04T17:09:16.451Z,32.65
2022-12-04T17:11:48.494Z,33.10
2022-12-04T17:14:16.822Z,31.17
2022-12-04T17:16:47.292Z,30.30
2022-12-04T17:19:16.144Z,31.17
2022-12-04T17:21:45.169Z,29.25
2022-12-04T17:24:13.356Z,30.98
2022-12-04T17:26:41.523Z,34.58
2022-12-04T17:29:11.148Z,31.90
2022-12-04T17:31:39.309Z,30.13
2022-12-04T17:34:07.924Z,30.15
2022-12-04T17:36:36.453Z,32.00
2022-12-04T17:39:07.317Z,31.55
2022-12-04T17:41:36.336Z,31.08
2022-12-04T17:44:04.885Z,29.73
2022-12-04T17:46:34.686Z,28.00
2022-12-04T17:49:06.851Z,30.80
2022-12-04T17:51:36.190Z,31.33
2022-12-04T17:54:04.952Z,28.67
2022-12-04T17:56:33.787Z,30.55
2022-12-04T17:59:01.861Z,30.35
2022-12-04T18:01:31.079Z,29.77
2022-12-04T18:04:03.251Z,29.80
2022-12-04T18:06:33.883Z,27.73
2022-12-04T18:09:02.691Z,28.85
2022-12-04T18:11:32.497Z,27.40
2022-12-04T18:14:04.807Z,27.50
2022-12-04T18:16:38.913Z,25.98
2022-12-04T18:19:08.453Z,25.98
2022-12-04T18:21:36.509Z,24.63
2022-12-04T18:24:06.080Z,28.77
2022-12-04T18:26:36.693Z,26.40
2022-12-04T18:29:05.943Z,26.30
2022-12-04T18:31:34.747Z,29.17
2022-12-04T18:34:03.157Z,20.02
2022-12-04T18:36:33.451Z,17.75
2022-12-04T18:39:03.701Z,18.70
2022-12-04T18:41:32.115Z,16.52
2022-12-04T18:44:00.442Z,17.98
2022-12-04T18:46:28.640Z,17.77
2022-12-04T18:48:59.998Z,17.77
2022-12-04T18:51:30.398Z,18.85
2022-12-04T18:54:02.457Z,17.00
2022-12-04T18:56:31.388Z,16.33
2022-12-04T18:59:00.416Z,17.70
2022-12-04T19:01:31.270Z,17.63
2022-12-04T19:04:02.274Z,17.05
2022-12-04T19:06:32.169Z,16.45
2022-12-04T19:09:04.340Z,16.48
2022-12-04T19:11:32.998Z,15.35
2022-12-04T19:14:04.301Z,16.52
2022-12-04T19:16:37.059Z,16.27
2022-12-04T19:19:05.689Z,14.52
2022-12-04T19:21:34.586Z,15.23
2022-12-04T19:24:04.776Z,15.32
2022-12-04T19:26:34.834Z,15.15
2022-12-04T19:29:03.523Z,14.80
2022-12-04T19:31:34.364Z,13.77
2022-12-04T19:34:03.502Z,15.82
2022-12-04T19:36:33.091Z,15.40
2022-12-04T19:39:02.258Z,12.57
2022-12-04T19:41:34.280Z,13.93
2022-12-04T19:44:14.646Z,13.57
2022-12-04T19:46:51.640Z,13.30
2022-12-04T19:49:20.340Z,13.90
2022-12-04T19:51:49.591Z,13.93
2022-12-04T19:54:20.348Z,15.13
2022-12-04T19:56:52.497Z,14.60
2022-12-04T19:59:21.385Z,15.38
2022-12-04T20:01:49.423Z,13.00
2022-12-04T20:04:17.680Z,14.35
2022-12-04T20:06:47.482Z,15.13
2022-12-04T20:09:19.665Z,14.10
2022-12-04T20:11:49.688Z,13.40
2022-12-04T20:14:17.858Z,13.75
2022-12-04T20:16:46.835Z,14.07
2022-12-04T20:19:17.012Z,14.15
2022-12-04T20:21:46.253Z,12.15
2022-12-04T20:24:17.604Z,12.85
2022-12-04T20:26:46.741Z,12.40
2022-12-04T20:29:19.225Z,13.05
2022-12-04T20:31:47.973Z,14.63
2022-12-04T20:34:17.850Z,12.60
2022-12-04T20:36:47.695Z,12.10
2022-12-04T20:39:17.139Z,12.15
2022-12-04T20:41:45.458Z,13.52
2022-12-04T20:44:18.385Z,13.93
2022-12-04T20:46:47.130Z,12.88
2022-12-04T20:49:21.096Z,11.75
2022-12-04T20:51:53.106Z,13.90
2022-12-04T20:54:23.478Z,14.30
2022-12-04T20:56:53.252Z,13.23
2022-12-04T20:59:25.020Z,13.40
2022-12-04T21:01:53.697Z,12.45
2022-12-04T21:04:22.618Z,11.35
2022-12-04T21:06:50.697Z,12.30
2022-12-04T21:09:21.415Z,11.40
2022-12-04T21:11:51.517Z,12.02
2022-12-04T21:14:38.675Z,11.77
2022-12-04T21:17:11.740Z,11.73
2022-12-04T21:19:39.948Z,11.73
2022-12-04T21:22:08.148Z,11.52
2022-12-04T21:24:38.769Z,11.65
2022-12-04T21:27:09.098Z,13.00
2022-12-04T21:29:37.469Z,11.15
2022-12-04T21:32:08.125Z,12.00
2022-12-04T21:34:36.745Z,12.90
2022-12-04T21:37:04.866Z,12.40
2022-12-04T21:39:33.492Z,12.27
2022-12-04T21:42:19.206Z,12.90
2022-12-04T21:44:48.394Z,12.35
2022-12-04T21:47:18.443Z,13.00
2022-12-04T21:49:47.631Z,11.15
2022-12-04T21:52:17.414Z,12.20
2022-12-04T21:54:45.751Z,10.60
2022-12-04T21:57:14.017Z,13.10
2022-12-04T21:59:42.122Z,12.13
2022-12-04T22:02:11.628Z,11.68
2022-12-04T22:04:41.273Z,12.65
2022-12-04T22:07:09.877Z,10.98
2022-12-04T22:09:41.168Z,12.75
2022-12-04T22:14:57.403Z,11.05
2022-12-04T22:17:25.641Z,11.77
2022-12-04T22:19:55.796Z,11.55
2022-12-04T22:22:24.302Z,11.40
2022-12-04T22:24:52.302Z,11.57
2022-12-04T22:27:20.489Z,11.18
2022-12-04T22:29:51.084Z,10.50
2022-12-04T22:32:19.588Z,11.55
2022-12-04T22:34:48.753Z,12.15
2022-12-04T22:37:18.408Z,11.25
2022-12-04T22:39:46.346Z,11.98
2022-12-04T22:42:14.429Z,10.98
2022-12-04T22:44:42.566Z,12.50
2022-12-04T22:47:10.635Z,12.25
2022-12-04T22:49:38.636Z,11.25
2022-12-04T22:52:06.886Z,11.40
2022-12-04T22:54:38.647Z,11.68
2022-12-04T22:57:07.131Z,11.95
2022-12-04T22:59:35.178Z,10.77
2022-12-04T23:02:03.298Z,12.27
2022-12-04T23:04:31.319Z,11.30
2022-12-04T23:06:59.454Z,12.15
2022-12-04T23:09:31.172Z,12.23
2022-12-04T23:12:00.903Z,11.90
2022-12-04T23:14:29.788Z,11.07
2022-12-04T23:16:58.092Z,11.25
2022-12-04T23:19:26.175Z,11.85
2022-12-04T23:21:57.199Z,12.05
2022-12-04T23:24:26.129Z,12.13
2022-12-04T23:26:54.365Z,12.18
2022-12-04T23:29:51.424Z,13.00
2022-12-04T23:32:11.920Z,12.63
2022-12-04T23:34:40.071Z,12.50
2022-12-04T23:37:08.080Z,12.25
2022-12-04T23:39:36.559Z,12.77
2022-12-04T23:42:05.207Z,12.00
2022-12-04T23:44:36.009Z,12.82
2022-12-04T23:47:04.248Z,13.40
2022-12-04T23:49:32.333Z,12.50
2022-12-04T23:52:00.388Z,12.77
2022-12-04T23:54:30.299Z,12.27
2022-12-04T23:56:58.539Z,14.20
2022-12-04T23:59:26.612Z,12.40
